Time;durP1;ratioP1;P1;durP2;ratioP2;P2;SDS_P1;SDS_P2;PMS_P1;PMS_P2;Temp;Humidity;BMP_temperature;BMP_pressure;BME280_temperature;BME280_humidity;BME280_pressure;Samples;Min_cycle;Max_cycle;Signal;HPM_P1;HPM_P2
2023/01/08 00:01:14;;;;;;;7.47;5.17;;;9.20;99.90;;;;;;5060809;28;20465;-70
2023/01/08 00:03:41;;;;;;;6.27;5.67;;;9.30;99.90;;;;;;5060485;28;20455;-70
2023/01/08 00:06:10;;;;;;;7.23;5.10;;;9.20;99.90;;;;;;5059868;28;20471;-69
2023/01/08 00:08:37;;;;;;;6.43;5.70;;;9.20;99.90;;;;;;5059943;28;20461;-70
2023/01/08 00:11:04;;;;;;;6.00;5.20;;;9.20;99.90;;;;;;5060063;28;20562;-69
2023/01/08 00:13:31;;;;;;;6.43;5.13;;;9.10;99.90;;;;;;5060297;28;20531;-71
2023/01/08 00:16:02;;;;;;;5.33;4.83;;;9.10;99.90;;;;;;5061027;28;20455;-70
2023/01/08 00:18:30;;;;;;;6.93;6.07;;;9.10;99.90;;;;;;5060794;28;20501;-70
2023/01/08 00:20:57;;;;;;;6.43;5.30;;;9.10;99.90;;;;;;5061278;28;20462;-70
2023/01/08 00:23:24;;;;;;;5.77;5.17;;;9.10;99.90;;;;;;5060535;28;20483;-70
2023/01/08 00:25:51;;;;;;;5.80;5.20;;;9.10;99.90;;;;;;5060465;28;20542;-69
2023/01/08 00:28:19;;;;;;;9.30;6.50;;;9.10;99.90;;;;;;5059298;28;20478;-70
2023/01/08 00:30:47;;;;;;;10.43;8.17;;;9.00;99.90;;;;;;5060618;28;20475;-70
2023/01/08 00:33:14;;;;;;;7.33;6.03;;;9.00;99.90;;;;;;5061544;28;20555;-71
2023/01/08 00:35:42;;;;;;;6.97;5.83;;;9.00;99.90;;;;;;5061100;28;20487;-71
2023/01/08 00:38:09;;;;;;;10.87;6.20;;;9.00;99.90;;;;;;5062023;28;20490;-69
2023/01/08 00:40:37;;;;;;;6.63;5.93;;;9.00;99.90;;;;;;5060359;28;20543;-69
2023/01/08 00:43:04;;;;;;;6.00;5.10;;;9.00;99.90;;;;;;5059793;28;20495;-69
2023/01/08 00:45:31;;;;;;;8.03;5.70;;;8.90;99.90;;;;;;5059751;28;20465;-69
2023/01/08 00:47:58;;;;;;;6.37;5.43;;;8.80;99.90;;;;;;5060371;28;20466;-69
2023/01/08 00:50:25;;;;;;;6.60;5.80;;;8.80;99.90;;;;;;5060393;28;20485;-70
2023/01/08 00:52:54;;;;;;;6.47;5.83;;;8.80;99.90;;;;;;5063920;28;20455;-70
2023/01/08 00:55:20;;;;;;;6.53;5.90;;;8.80;99.90;;;;;;5064054;28;20469;-70
2023/01/08 00:57:47;;;;;;;6.97;6.27;;;8.80;99.90;;;;;;5064228;28;20482;-69
2023/01/08 01:00:16;;;;;;;11.13;6.03;;;8.70;99.90;;;;;;5063846;28;20494;-70
2023/01/08 01:02:43;;;;;;;7.07;5.80;;;8.70;99.90;;;;;;5063781;28;20776;-70
2023/01/08 01:05:14;;;;;;;6.30;5.70;;;8.70;99.90;;;;;;5062236;28;20451;-69
2023/01/08 01:07:41;;;;;;;6.77;6.07;;;8.60;99.90;;;;;;5063940;28;20504;-71
2023/01/08 01:10:10;;;;;;;6.77;5.97;;;8.60;99.90;;;;;;5063074;28;20478;-71
2023/01/08 01:12:37;;;;;;;9.03;6.73;;;8.50;99.90;;;;;;5062632;28;20778;-70
2023/01/08 01:15:09;;;;;;;7.00;6.30;;;8.60;99.90;;;;;;5063977;28;20465;-70
2023/01/08 01:17:38;;;;;;;8.07;6.20;;;8.50;99.90;;;;;;5063352;28;20443;-69
2023/01/08 01:20:06;;;;;;;7.67;5.43;;;8.60;99.90;;;;;;5063933;28;20513;-70
2023/01/08 01:22:33;;;;;;;9.80;6.40;;;8.50;99.90;;;;;;5064467;28;20482;-70
2023/01/08 01:24:59;;;;;;;5.73;5.20;;;8.50;99.90;;;;;;5065178;28;20493;-69
2023/01/08 01:27:28;;;;;;;7.23;6.50;;;8.50;99.90;;;;;;5064354;28;20493;-70
2023/01/08 01:29:55;;;;;;;7.50;5.90;;;8.50;99.90;;;;;;5063947;28;20483;-69
2023/01/08 01:32:22;;;;;;;7.97;6.93;;;8.40;99.90;;;;;;5063609;28;20547;-68
2023/01/08 01:34:49;;;;;;;7.47;6.20;;;8.40;99.90;;;;;;5064221;28;20458;-70
2023/01/08 01:37:16;;;;;;;6.93;6.20;;;8.40;99.90;;;;;;5064843;28;20549;-69
2023/01/08 01:39:43;;;;;;;8.37;6.70;;;8.40;99.90;;;;;;5066106;28;20487;-69
2023/01/08 01:42:38;;;;;;;7.90;6.73;;;8.40;99.90;;;;;;5063860;28;20466;-70
2023/01/08 01:45:17;;;;;;;7.53;6.33;;;8.30;99.90;;;;;;5062378;28;20467;-69
2023/01/08 01:47:47;;;;;;;9.60;7.40;;;8.30;99.90;;;;;;5064025;28;20483;-70
2023/01/08 01:50:18;;;;;;;9.00;7.57;;;8.20;99.90;;;;;;5062815;28;20632;-70
2023/01/08 01:52:49;;;;;;;8.20;7.30;;;8.20;99.90;;;;;;5061998;28;20782;-69
2023/01/08 01:55:17;;;;;;;8.37;6.33;;;8.10;99.90;;;;;;5061549;28;20510;-70
2023/01/08 01:57:49;;;;;;;8.43;7.57;;;8.10;99.90;;;;;;5062187;28;20542;-68
2023/01/08 02:00:18;;;;;;;8.00;7.20;;;8.00;99.90;;;;;;5061081;28;20435;-70
2023/01/08 02:02:45;;;;;;;6.90;6.23;;;8.00;99.90;;;;;;5060650;28;20542;-70
2023/01/08 02:05:12;;;;;;;6.33;5.73;;;7.90;99.90;;;;;;5061333;28;20740;-70
2023/01/08 02:07:44;;;;;;;10.30;7.30;;;7.90;99.90;;;;;;5061672;28;20589;-70
2023/01/08 02:10:15;;;;;;;8.70;7.10;;;7.90;99.90;;;;;;5062134;28;20951;-68
2023/01/08 02:12:47;;;;;;;7.47;6.67;;;7.90;99.90;;;;;;5065397;28;20486;-70
2023/01/08 02:15:20;;;;;;;8.40;6.77;;;7.90;99.90;;;;;;5064787;28;20448;-69
2023/01/08 02:17:52;;;;;;;7.80;6.50;;;7.90;99.90;;;;;;5064378;28;20771;-69
2023/01/08 02:20:24;;;;;;;7.87;7.00;;;7.90;99.90;;;;;;5063471;28;20535;-70
2023/01/08 02:23:10;;;;;;;7.40;6.60;;;7.80;99.90;;;;;;5062104;28;20548;-69
2023/01/08 02:25:56;;;;;;;7.97;7.17;;;7.80;99.90;;;;;;5063226;28;20443;-69
2023/01/08 02:28:25;;;;;;;8.17;6.87;;;7.80;99.90;;;;;;5063610;28;20446;-69
2023/01/08 02:30:52;;;;;;;8.93;7.33;;;7.70;99.90;;;;;;5063506;28;20479;-70
2023/01/08 02:33:19;;;;;;;9.30;7.00;;;7.80;99.90;;;;;;5063098;28;20465;-71
2023/01/08 02:35:53;;;;;;;9.70;8.03;;;7.80;99.90;;;;;;5061200;28;20489;-71
2023/01/08 02:38:20;;;;;;;8.60;7.70;;;7.80;99.90;;;;;;5061225;28;20884;-70
2023/01/08 02:40:56;;;;;;;7.23;6.53;;;7.70;99.90;;;;;;5062269;28;20513;-70
2023/01/08 02:43:31;;;;;;;9.30;8.40;;;7.70;99.90;;;;;;5061984;28;20438;-70
2023/01/08 02:46:01;;;;;;;8.23;7.43;;;7.70;99.90;;;;;;5061243;28;20506;-69
2023/01/08 02:48:34;;;;;;;8.87;7.20;;;7.70;99.90;;;;;;5061301;28;20877;-70
2023/01/08 02:51:07;;;;;;;8.67;7.83;;;7.70;99.90;;;;;;5061375;28;20555;-70
2023/01/08 02:53:38;;;;;;;8.57;7.67;;;7.70;99.90;;;;;;5062850;28;20475;-70
2023/01/08 02:56:09;;;;;;;8.93;8.03;;;7.70;99.90;;;;;;5063914;28;20526;-70
2023/01/08 02:58:40;;;;;;;8.00;7.20;;;7.60;99.90;;;;;;5063980;28;20499;-71
2023/01/08 03:01:09;;;;;;;8.73;7.30;;;7.60;99.90;;;;;;5064192;28;20507;-69
2023/01/08 03:03:39;;;;;;;9.00;8.10;;;7.60;99.90;;;;;;5063925;28;20810;-70
2023/01/08 03:06:09;;;;;;;8.83;7.83;;;7.60;99.90;;;;;;5064100;28;20491;-69
2023/01/08 03:08:40;;;;;;;9.23;7.90;;;7.60;99.90;;;;;;5064085;28;20469;-69
2023/01/08 03:11:10;;;;;;;8.57;7.67;;;7.60;99.90;;;;;;5063223;28;20535;-69
2023/01/08 03:13:44;;;;;;;8.50;7.30;;;7.60;99.90;;;;;;5063992;28;20490;-70
2023/01/08 03:16:15;;;;;;;8.93;8.03;;;7.70;99.90;;;;;;5062537;28;20462;-69
2023/01/08 03:18:49;;;;;;;10.60;8.83;;;7.60;99.90;;;;;;5063279;28;20439;-69
2023/01/08 03:21:18;;;;;;;9.20;8.30;;;7.60;99.90;;;;;;5061460;28;20575;-69
2023/01/08 03:23:46;;;;;;;10.60;8.67;;;7.60;99.90;;;;;;5061003;28;20447;-69
2023/01/08 03:26:17;;;;;;;9.03;7.97;;;7.50;99.90;;;;;;5062092;28;20461;-69
2023/01/08 03:28:48;;;;;;;9.67;8.33;;;7.50;99.90;;;;;;5062949;28;20461;-69
2023/01/08 03:31:16;;;;;;;9.80;8.60;;;7.50;99.90;;;;;;5063191;28;20551;-69
2023/01/08 03:33:44;;;;;;;8.70;7.80;;;7.50;99.90;;;;;;5064577;28;20559;-69
2023/01/08 03:36:14;;;;;;;9.50;8.60;;;7.50;99.90;;;;;;5057822;28;20955;-68
2023/01/08 03:38:47;;;;;;;10.77;8.50;;;7.50;99.90;;;;;;5057418;28;20439;-67
2023/01/08 03:41:18;;;;;;;8.90;7.53;;;7.50;99.90;;;;;;5057555;28;20897;-69
2023/01/08 03:43:46;;;;;;;10.10;9.07;;;7.50;99.90;;;;;;5058211;28;20440;-68
2023/01/08 03:46:18;;;;;;;9.50;7.97;;;7.50;99.90;;;;;;5058013;28;20916;-69
2023/01/08 03:48:46;;;;;;;12.70;9.33;;;7.40;99.90;;;;;;5056764;28;20884;-69
2023/01/08 03:51:13;;;;;;;10.43;8.67;;;7.50;99.90;;;;;;5057864;28;20578;-69
2023/01/08 03:53:40;;;;;;;9.77;8.50;;;7.40;99.90;;;;;;5058082;28;20478;-69
2023/01/08 03:56:08;;;;;;;9.30;8.10;;;7.40;99.90;;;;;;5057359;28;20536;-70
2023/01/08 03:58:34;;;;;;;9.30;8.33;;;7.30;99.90;;;;;;5057040;28;20471;-69
2023/01/08 04:01:02;;;;;;;9.27;8.33;;;7.30;99.90;;;;;;5057054;28;20455;-69
2023/01/08 04:03:29;;;;;;;10.23;8.57;;;7.30;99.90;;;;;;5057205;28;20459;-69
2023/01/08 04:05:59;;;;;;;10.97;8.40;;;7.30;99.90;;;;;;5056736;28;20455;-69
2023/01/08 04:08:26;;;;;;;11.80;9.57;;;7.20;99.90;;;;;;5056646;28;20459;-69
2023/01/08 04:10:53;;;;;;;10.20;8.43;;;7.20;99.90;;;;;;5056609;28;20794;-69
2023/01/08 04:13:19;;;;;;;9.60;8.27;;;7.20;99.90;;;;;;5056802;28;20645;-67
2023/01/08 04:15:48;;;;;;;10.53;9.30;;;7.20;99.90;;;;;;5057042;28;20454;-68
2023/01/08 04:18:16;;;;;;;11.03;8.57;;;7.10;99.90;;;;;;5056293;28;20458;-70
2023/01/08 04:20:46;;;;;;;10.93;9.37;;;7.10;99.90;;;;;;5057100;28;20459;-68
2023/01/08 04:23:12;;;;;;;10.20;8.47;;;7.10;99.90;;;;;;5056252;28;20495;-69
2023/01/08 04:25:39;;;;;;;10.07;8.40;;;7.20;99.90;;;;;;5056460;28;20455;-69
2023/01/08 04:28:06;;;;;;;9.00;7.83;;;7.20;99.90;;;;;;5056714;28;20781;-69
2023/01/08 04:30:33;;;;;;;12.50;8.57;;;7.20;99.90;;;;;;5056064;28;20465;-68
2023/01/08 04:33:00;;;;;;;10.90;8.90;;;7.20;99.90;;;;;;5056840;28;20545;-68
2023/01/08 04:35:28;;;;;;;9.33;8.43;;;7.20;99.90;;;;;;5057206;28;20491;-69
2023/01/08 04:37:55;;;;;;;10.47;9.37;;;7.20;99.90;;;;;;5056970;28;20455;-69
2023/01/08 04:40:21;;;;;;;11.37;9.17;;;7.20;99.90;;;;;;5056590;28;20459;-69
2023/01/08 04:42:48;;;;;;;10.80;9.67;;;7.20;99.90;;;;;;5057210;28;20455;-69
2023/01/08 04:45:15;;;;;;;9.60;8.33;;;7.30;99.90;;;;;;5057130;28;20549;-69
2023/01/08 04:47:42;;;;;;;10.60;9.50;;;7.20;99.90;;;;;;5057217;28;20470;-69
2023/01/08 04:50:09;;;;;;;10.10;9.07;;;7.20;99.90;;;;;;5056779;28;20454;-69
2023/01/08 04:52:37;;;;;;;12.30;10.27;;;7.20;99.90;;;;;;5056637;28;20487;-68
2023/01/08 04:55:05;;;;;;;11.13;9.97;;;7.20;99.90;;;;;;5056525;28;20568;-68
2023/01/08 04:57:32;;;;;;;9.97;8.97;;;7.20;99.90;;;;;;5056453;28;20550;-68
2023/01/08 04:59:59;;;;;;;8.67;7.77;;;7.20;99.90;;;;;;5056531;28;20459;-69
2023/01/08 05:02:26;;;;;;;11.43;9.90;;;7.20;99.90;;;;;;5056725;28;20534;-68
2023/01/08 05:04:53;;;;;;;11.20;8.80;;;7.20;99.90;;;;;;5056847;28;20466;-69
2023/01/08 05:07:20;;;;;;;9.50;8.50;;;7.20;99.90;;;;;;5056293;28;20847;-69
2023/01/08 05:09:48;;;;;;;10.90;9.03;;;7.10;99.90;;;;;;5056302;28;20455;-69
2023/01/08 05:12:15;;;;;;;9.90;8.70;;;7.20;99.90;;;;;;5056375;28;20489;-69
2023/01/08 05:14:41;;;;;;;9.40;8.40;;;7.10;99.90;;;;;;5056366;28;20462;-68
2023/01/08 05:17:08;;;;;;;10.47;9.03;;;7.20;99.90;;;;;;5056063;28;20455;-68
2023/01/08 05:19:35;;;;;;;10.13;9.03;;;7.20;99.90;;;;;;5055780;28;20455;-68
2023/01/08 05:22:02;;;;;;;10.07;8.87;;;7.20;99.90;;;;;;5055555;28;20487;-69
2023/01/08 05:24:29;;;;;;;9.73;8.73;;;7.20;99.90;;;;;;5055381;28;20466;-68
2023/01/08 05:26:57;;;;;;;9.93;8.70;;;7.20;99.90;;;;;;5056314;28;20480;-68
2023/01/08 05:29:24;;;;;;;9.40;8.10;;;7.20;99.90;;;;;;5056052;28;20759;-69
2023/01/08 05:31:50;;;;;;;9.30;8.00;;;7.30;99.90;;;;;;5055958;28;20479;-69
2023/01/08 05:34:17;;;;;;;8.90;8.00;;;7.30;99.90;;;;;;5055709;28;20811;-69
2023/01/08 05:36:44;;;;;;;10.47;8.70;;;7.30;99.90;;;;;;5055519;28;20459;-69
2023/01/08 05:39:11;;;;;;;11.67;8.50;;;7.30;99.90;;;;;;5059159;28;20465;-68
2023/01/08 05:41:38;;;;;;;10.27;8.40;;;7.40;99.90;;;;;;5059502;28;20454;-69
2023/01/08 05:44:06;;;;;;;9.47;7.90;;;7.40;99.90;;;;;;5060140;28;20469;-69
2023/01/08 05:46:33;;;;;;;8.83;7.93;;;7.40;99.90;;;;;;5059360;28;20545;-69
2023/01/08 05:48:59;;;;;;;9.17;8.10;;;7.40;99.90;;;;;;5058866;28;20916;-69
2023/01/08 05:51:27;;;;;;;11.73;8.43;;;7.40;99.90;;;;;;5058929;28;20483;-68
2023/01/08 05:53:54;;;;;;;9.10;8.20;;;7.40;99.90;;;;;;5059131;28;20546;-68
2023/01/08 05:56:21;;;;;;;9.50;8.10;;;7.50;99.90;;;;;;5058857;28;20818;-69
2023/01/08 05:58:47;;;;;;;8.93;8.03;;;7.50;99.90;;;;;;5058771;28;20459;-68
2023/01/08 06:01:16;;;;;;;9.50;7.80;;;7.50;99.90;;;;;;5059482;28;20465;-70
2023/01/08 06:03:43;;;;;;;9.13;6.90;;;7.60;99.90;;;;;;5059027;28;20455;-69
2023/01/08 06:06:11;;;;;;;8.90;8.00;;;7.60;99.90;;;;;;5058414;28;20459;-69
2023/01/08 06:08:38;;;;;;;9.87;8.27;;;7.60;99.90;;;;;;5059210;28;20465;-69
2023/01/08 06:11:07;;;;;;;9.00;7.77;;;7.60;99.90;;;;;;5059518;28;20458;-69
2023/01/08 06:13:36;;;;;;;8.87;7.80;;;7.60;99.90;;;;;;5059111;28;20924;-69
2023/01/08 06:16:03;;;;;;;9.37;8.07;;;7.60;99.90;;;;;;5058279;28;20629;-69
2023/01/08 06:18:32;;;;;;;8.73;7.80;;;7.60;99.90;;;;;;5058278;28;20455;-68
2023/01/08 06:20:59;;;;;;;9.73;7.03;;;7.60;99.90;;;;;;5058091;28;20896;-68
2023/01/08 06:23:26;;;;;;;8.90;6.60;;;7.70;99.90;;;;;;5057676;28;20482;-69
2023/01/08 06:25:53;;;;;;;9.70;8.00;;;7.60;99.90;;;;;;5059937;28;20465;-69
2023/01/08 06:28:21;;;;;;;7.90;7.10;;;7.60;99.90;;;;;;5058442;28;20524;-68
2023/01/08 06:30:47;;;;;;;7.40;6.70;;;7.70;99.90;;;;;;5058417;28;20455;-69
2023/01/08 06:33:15;;;;;;;7.47;6.53;;;7.70;99.90;;;;;;5058836;28;20479;-68
2023/01/08 06:35:43;;;;;;;7.87;6.50;;;7.70;99.90;;;;;;5059021;28;20485;-70
2023/01/08 06:38:09;;;;;;;7.60;6.77;;;7.70;99.90;;;;;;5059241;28;20735;-69
2023/01/08 06:40:36;;;;;;;7.20;6.30;;;7.70;99.90;;;;;;5058929;28;20455;-68
2023/01/08 06:43:04;;;;;;;10.60;6.50;;;7.70;99.90;;;;;;5058336;28;20465;-70
2023/01/08 06:45:31;;;;;;;8.50;7.33;;;7.70;99.90;;;;;;5058400;28;20461;-69
2023/01/08 06:48:01;;;;;;;7.10;6.40;;;7.70;99.90;;;;;;5058395;28;20465;-67
2023/01/08 06:50:28;;;;;;;10.50;6.90;;;7.70;99.90;;;;;;5058677;28;20462;-69
2023/01/08 06:52:57;;;;;;;7.73;6.80;;;7.70;99.90;;;;;;5058506;28;20479;-69
2023/01/08 06:55:25;;;;;;;9.60;7.67;;;7.80;99.90;;;;;;5059063;28;20565;-68
2023/01/08 06:57:54;;;;;;;7.07;6.37;;;7.70;99.90;;;;;;5058677;28;20550;-67
2023/01/08 07:00:22;;;;;;;8.80;7.40;;;7.70;99.90;;;;;;5058696;28;20470;-69
2023/01/08 07:02:49;;;;;;;9.00;7.27;;;7.80;99.90;;;;;;5057834;28;20454;-69
2023/01/08 07:05:16;;;;;;;9.73;7.77;;;7.80;99.90;;;;;;5057794;28;20459;-67
2023/01/08 07:07:43;;;;;;;8.37;7.50;;;7.80;99.90;;;;;;5058412;28;20566;-69
2023/01/08 07:10:11;;;;;;;9.10;6.77;;;7.80;99.90;;;;;;5057717;28;20465;-70
2023/01/08 07:12:38;;;;;;;7.40;6.70;;;7.80;99.90;;;;;;5057694;28;20485;-69
2023/01/08 07:15:05;;;;;;;8.40;6.93;;;7.80;99.90;;;;;;5057556;28;20786;-69
2023/01/08 07:17:33;;;;;;;8.30;7.40;;;7.80;99.90;;;;;;5057129;28;20931;-69
2023/01/08 07:19:59;;;;;;;8.20;6.83;;;7.80;99.90;;;;;;5057608;28;20455;-70
2023/01/08 07:22:27;;;;;;;7.77;6.97;;;7.80;99.90;;;;;;5057518;28;20479;-69
2023/01/08 07:24:54;;;;;;;8.97;7.70;;;7.80;99.90;;;;;;5057954;28;20455;-69
2023/01/08 07:27:22;;;;;;;6.93;6.23;;;7.80;99.90;;;;;;5058072;28;20471;-68
2023/01/08 07:29:49;;;;;;;8.10;6.20;;;7.80;99.90;;;;;;5056890;28;20459;-69
2023/01/08 07:32:16;;;;;;;9.10;7.27;;;7.80;99.90;;;;;;5057051;28;20475;-69
2023/01/08 07:34:43;;;;;;;8.80;7.40;;;7.80;99.90;;;;;;5056991;28;20549;-69
2023/01/08 07:37:10;;;;;;;6.53;5.80;;;7.80;99.90;;;;;;5056993;28;20573;-68
2023/01/08 07:39:36;;;;;;;8.03;6.70;;;7.80;99.90;;;;;;5056957;28;20513;-69
2023/01/08 07:42:03;;;;;;;9.33;6.93;;;7.90;99.90;;;;;;5057462;28;20786;-70
2023/01/08 07:44:32;;;;;;;8.87;6.53;;;7.90;99.90;;;;;;5056430;28;20459;-68
2023/01/08 07:46:58;;;;;;;7.63;6.67;;;7.90;99.90;;;;;;5056783;28;20459;-69
2023/01/08 07:49:25;;;;;;;7.37;6.43;;;7.90;99.90;;;;;;5056811;28;20455;-69
2023/01/08 07:51:52;;;;;;;6.80;6.10;;;7.90;99.90;;;;;;5056938;28;20920;-70
2023/01/08 07:54:19;;;;;;;7.40;6.70;;;7.80;99.90;;;;;;5057140;28;20465;-68
2023/01/08 07:56:46;;;;;;;6.90;6.30;;;7.80;99.90;;;;;;5056887;28;20627;-68
2023/01/08 07:59:13;;;;;;;7.53;6.63;;;7.70;99.90;;;;;;5056477;28;20465;-69
2023/01/08 08:01:41;;;;;;;7.87;6.27;;;7.70;99.90;;;;;;5055981;28;20477;-69
2023/01/08 08:04:08;;;;;;;10.47;6.90;;;7.70;99.90;;;;;;5056733;28;20946;-69
2023/01/08 08:06:35;;;;;;;9.53;7.50;;;7.70;99.90;;;;;;5056643;28;20459;-68
2023/01/08 08:09:02;;;;;;;6.53;5.93;;;7.70;99.90;;;;;;5057331;28;20570;-70
2023/01/08 08:11:29;;;;;;;7.53;6.83;;;7.70;99.90;;;;;;5056586;28;20498;-70
2023/01/08 08:13:56;;;;;;;7.30;6.60;;;7.70;99.90;;;;;;5056393;28;21018;-68
2023/01/08 08:16:23;;;;;;;8.70;7.10;;;7.70;99.90;;;;;;5056918;28;20642;-68
2023/01/08 08:18:51;;;;;;;7.40;6.70;;;7.70;99.90;;;;;;5056335;28;20912;-70
2023/01/08 08:21:18;;;;;;;7.80;6.57;;;7.70;99.90;;;;;;5056713;28;20459;-68
2023/01/08 08:23:44;;;;;;;6.80;6.13;;;7.80;99.90;;;;;;5056817;28;20435;-69
2023/01/08 08:26:11;;;;;;;8.90;6.90;;;7.80;99.90;;;;;;5056830;28;20991;-69
2023/01/08 08:28:38;;;;;;;9.07;6.83;;;7.80;99.90;;;;;;5056988;28;20455;-68
2023/01/08 08:31:05;;;;;;;7.13;6.43;;;7.80;99.90;;;;;;5056749;28;20542;-70
2023/01/08 08:33:32;;;;;;;7.43;6.60;;;7.80;99.90;;;;;;5056528;28;20969;-67
2023/01/08 08:36:00;;;;;;;8.33;6.77;;;7.80;99.90;;;;;;5056665;28;20455;-67
2023/01/08 08:38:27;;;;;;;7.43;6.37;;;7.80;99.90;;;;;;5056647;28;20455;-69
2023/01/08 08:40:54;;;;;;;7.63;5.93;;;7.80;99.90;;;;;;5056359;28;20558;-68
2023/01/08 08:43:21;;;;;;;7.17;6.43;;;7.80;99.90;;;;;;5056949;28;20443;-68
2023/01/08 08:45:47;;;;;;;8.37;6.63;;;7.70;99.90;;;;;;5056077;28;20473;-69
2023/01/08 08:48:15;;;;;;;8.80;6.63;;;7.80;99.90;;;;;;5056481;28;20455;-68
2023/01/08 08:50:42;;;;;;;8.53;6.53;;;7.80;99.90;;;;;;5056571;28;20516;-69
2023/01/08 08:53:11;;;;;;;7.77;7.00;;;7.80;99.90;;;;;;5056533;28;20493;-68
2023/01/08 08:55:38;;;;;;;7.63;6.30;;;7.90;99.90;;;;;;5057253;28;20465;-69
2023/01/08 08:58:07;;;;;;;7.70;6.90;;;7.90;99.90;;;;;;5057175;28;20455;-69
2023/01/08 09:00:34;;;;;;;7.83;6.30;;;7.90;99.90;;;;;;5057042;28;20589;-67
2023/01/08 09:03:01;;;;;;;7.60;6.33;;;8.00;99.90;;;;;;5057114;28;20463;-70
2023/01/08 09:05:29;;;;;;;7.00;6.30;;;8.00;99.90;;;;;;5056389;28;20546;-68
2023/01/08 09:07:56;;;;;;;7.30;6.13;;;8.00;99.90;;;;;;5055704;28;20467;-68
2023/01/08 09:10:24;;;;;;;7.27;6.17;;;8.00;99.90;;;;;;5055975;28;20562;-68
2023/01/08 09:12:53;;;;;;;7.43;6.17;;;8.10;99.90;;;;;;5057384;28;20479;-69
2023/01/08 09:15:20;;;;;;;8.43;6.10;;;8.10;99.90;;;;;;5060115;28;20459;-68
2023/01/08 09:17:52;;;;;;;7.00;6.30;;;8.20;99.90;;;;;;5059997;28;20888;-69
2023/01/08 09:20:19;;;;;;;6.13;5.53;;;8.20;99.90;;;;;;5059770;28;20542;-68
2023/01/08 09:22:46;;;;;;;6.30;5.70;;;8.30;99.90;;;;;;5060605;28;20544;-70
2023/01/08 09:25:13;;;;;;;8.67;7.30;;;8.40;99.90;;;;;;5065871;28;20469;-70
2023/01/08 09:27:41;;;;;;;5.80;5.30;;;8.40;99.90;;;;;;5065730;28;20459;-70
2023/01/08 09:30:09;;;;;;;8.47;6.10;;;8.50;99.90;;;;;;5066332;28;20486;-71
2023/01/08 09:32:36;;;;;;;7.50;5.70;;;8.60;99.90;;;;;;5066240;28;20485;-70
2023/01/08 09:35:04;;;;;;;6.10;5.50;;;8.60;99.90;;;;;;5065563;28;20458;-70
2023/01/08 09:37:31;;;;;;;6.40;5.80;;;8.60;99.90;;;;;;5065584;28;20491;-70
2023/01/08 09:39:57;;;;;;;6.67;5.60;;;8.60;99.90;;;;;;5066830;28;20494;-70
2023/01/08 09:42:27;;;;;;;7.60;6.40;;;8.60;99.90;;;;;;5066486;28;20832;-70
2023/01/08 09:44:59;;;;;;;7.80;5.70;;;8.60;99.90;;;;;;5066774;28;20523;-69
2023/01/08 09:47:29;;;;;;;6.80;6.10;;;8.60;99.90;;;;;;5066924;28;20471;-70
2023/01/08 09:50:02;;;;;;;6.00;5.30;;;8.60;99.90;;;;;;5066324;28;20469;-69
2023/01/08 09:52:31;;;;;;;7.13;5.97;;;8.50;99.90;;;;;;5081127;28;20553;-70
2023/01/08 09:54:58;;;;;;;8.13;6.37;;;8.50;99.90;;;;;;5080322;28;20454;-70
2023/01/08 09:57:25;;;;;;;9.13;6.70;;;8.50;99.90;;;;;;5065783;28;20532;-70
2023/01/08 09:59:52;;;;;;;5.73;5.13;;;8.50;99.90;;;;;;5065041;28;20553;-71
2023/01/08 10:02:22;;;;;;;6.67;5.97;;;8.50;99.90;;;;;;5064247;28;20486;-70
2023/01/08 10:04:53;;;;;;;6.00;5.30;;;8.40;99.90;;;;;;5065352;28;20446;-70
2023/01/08 10:07:23;;;;;;;6.03;5.43;;;8.40;99.90;;;;;;5064200;28;20458;-69
2023/01/08 10:09:51;;;;;;;6.00;5.40;;;8.40;99.90;;;;;;5064286;28;20608;-70
2023/01/08 10:12:24;;;;;;;6.90;6.20;;;8.40;99.90;;;;;;5065116;28;20769;-70
2023/01/08 10:14:51;;;;;;;5.33;4.83;;;8.40;99.90;;;;;;5063591;28;20895;-70
2023/01/08 10:17:27;;;;;;;6.57;5.87;;;8.40;99.90;;;;;;5064558;28;20827;-70
2023/01/08 10:19:54;;;;;;;6.30;5.50;;;8.40;99.90;;;;;;5063322;28;20446;-69
2023/01/08 10:22:23;;;;;;;6.83;6.13;;;8.40;99.90;;;;;;5063286;28;20540;-71
2023/01/08 10:24:51;;;;;;;8.17;6.50;;;8.40;99.90;;;;;;5062493;28;20461;-71
2023/01/08 10:27:20;;;;;;;7.37;6.60;;;8.40;99.90;;;;;;5065082;28;20522;-70
2023/01/08 10:29:47;;;;;;;7.70;6.60;;;8.40;99.90;;;;;;5064629;28;20495;-70
2023/01/08 10:32:16;;;;;;;7.17;6.30;;;8.40;99.90;;;;;;5063132;28;20447;-69
2023/01/08 10:34:47;;;;;;;6.77;6.10;;;8.50;99.90;;;;;;5064207;28;20996;-70
2023/01/08 10:37:22;;;;;;;6.90;6.00;;;8.40;99.90;;;;;;5063647;28;20522;-70
2023/01/08 10:39:51;;;;;;;7.30;6.60;;;8.40;99.90;;;;;;5064002;28;20439;-70
2023/01/08 10:42:20;;;;;;;7.57;6.60;;;8.40;99.90;;;;;;5063323;28;20935;-71
2023/01/08 10:44:56;;;;;;;9.57;6.60;;;8.40;99.90;;;;;;5063759;28;20782;-71
2023/01/08 10:47:25;;;;;;;8.80;6.47;;;8.40;99.90;;;;;;5064424;28;20512;-71
2023/01/08 10:49:54;;;;;;;8.93;6.50;;;8.30;99.90;;;;;;5064404;28;20758;-69
2023/01/08 10:52:26;;;;;;;7.70;6.80;;;8.30;99.90;;;;;;5066135;28;20479;-70
2023/01/08 10:54:53;;;;;;;7.80;7.00;;;8.30;99.90;;;;;;5065344;28;20552;-69
2023/01/08 10:57:24;;;;;;;7.53;6.23;;;8.30;99.90;;;;;;5061417;28;20823;-70
2023/01/08 10:59:50;;;;;;;8.33;6.43;;;8.30;99.90;;;;;;5062282;28;20483;-70
2023/01/08 11:02:28;;;;;;;9.40;7.07;;;8.30;99.90;;;;;;5060875;28;20455;-70
2023/01/08 11:04:58;;;;;;;8.70;7.83;;;8.30;99.90;;;;;;5061094;28;20439;-70
2023/01/08 11:07:26;;;;;;;9.23;7.43;;;8.30;99.90;;;;;;5060635;28;20459;-70
2023/01/08 11:09:53;;;;;;;8.73;7.47;;;8.30;99.90;;;;;;5060616;28;20571;-70
2023/01/08 11:12:34;;;;;;;9.20;7.60;;;8.30;99.90;;;;;;5060402;28;20462;-70
2023/01/08 11:15:01;;;;;;;7.53;6.70;;;8.30;99.90;;;;;;5060152;28;20534;-70
2023/01/08 11:17:28;;;;;;;8.30;7.30;;;8.30;99.90;;;;;;5060043;28;20455;-70
2023/01/08 11:20:08;;;;;;;11.13;7.70;;;8.40;99.90;;;;;;5060514;28;20455;-70
2023/01/08 11:22:35;;;;;;;8.20;7.40;;;8.40;99.90;;;;;;5061550;28;20487;-71
2023/01/08 11:25:02;;;;;;;8.20;7.30;;;8.50;99.90;;;;;;5061182;28;20530;-70
2023/01/08 11:27:31;;;;;;;9.33;7.53;;;8.50;99.90;;;;;;5060944;28;20459;-70
2023/01/08 11:30:05;;;;;;;9.47;6.87;;;8.60;99.90;;;;;;5061693;28;20938;-70
2023/01/08 11:32:45;;;;;;;7.87;6.90;;;8.60;99.90;;;;;;5062471;28;20498;-70
2023/01/08 11:35:18;;;;;;;8.53;7.30;;;8.60;99.90;;;;;;5061459;28;20450;-69
2023/01/08 11:37:51;;;;;;;7.70;6.90;;;8.60;99.90;;;;;;5063067;28;20953;-69
2023/01/08 11:40:23;;;;;;;8.10;6.57;;;8.70;99.90;;;;;;5062059;28;20497;-71
2023/01/08 11:43:08;;;;;;;6.23;5.63;;;8.70;99.90;;;;;;5062544;28;20507;-70
2023/01/08 11:45:46;;;;;;;10.73;7.00;;;8.80;99.90;;;;;;5062466;28;20840;-70
2023/01/08 11:48:34;;;;;;;7.37;6.50;;;8.80;99.90;;;;;;5063698;28;20464;-70
2023/01/08 11:51:17;;;;;;;7.43;6.63;;;8.80;99.90;;;;;;5063881;28;20507;-70
2023/01/08 11:53:52;;;;;;;8.03;5.87;;;8.80;99.90;;;;;;5063491;28;20469;-70
2023/01/08 11:56:28;;;;;;;8.70;7.33;;;8.80;99.90;;;;;;5062915;28;20537;-70
2023/01/08 11:59:06;;;;;;;7.23;6.53;;;8.80;99.90;;;;;;5062356;28;20440;-70
2023/01/08 12:01:47;;;;;;;8.57;6.80;;;8.90;99.90;;;;;;5063455;28;20896;-70
2023/01/08 12:04:32;;;;;;;8.23;6.60;;;8.90;99.90;;;;;;5062428;28;20439;-71
2023/01/08 12:07:14;;;;;;;8.00;7.00;;;8.90;99.90;;;;;;5062917;28;20518;-70
2023/01/08 12:09:45;;;;;;;6.83;6.10;;;8.90;99.90;;;;;;5062061;28;20527;-70
2023/01/08 12:12:24;;;;;;;7.93;6.13;;;9.00;99.90;;;;;;5062063;28;20820;-70
2023/01/08 12:15:02;;;;;;;7.47;6.53;;;9.00;99.90;;;;;;5062090;28;20540;-71
2023/01/08 12:18:01;;;;;;;8.13;6.60;;;9.00;99.90;;;;;;5062335;28;20518;-69
2023/01/08 12:20:35;;;;;;;5.93;5.30;;;9.10;99.90;;;;;;5047464;28;20463;-70
2023/01/08 12:23:14;;;;;;;7.77;5.70;;;9.10;99.90;;;;;;5062709;28;20486;-71
2023/01/08 12:26:00;;;;;;;6.83;6.17;;;9.10;99.90;;;;;;5063025;28;20454;-70
2023/01/08 12:28:42;;;;;;;7.80;6.40;;;9.10;99.90;;;;;;5062628;28;20439;-70
2023/01/08 12:31:34;;;;;;;8.90;6.90;;;9.20;99.90;;;;;;5063500;28;20442;-70
2023/01/08 12:34:07;;;;;;;6.80;6.10;;;9.20;99.90;;;;;;5063260;28;20483;-70
2023/01/08 12:36:39;;;;;;;7.50;6.60;;;9.30;99.90;;;;;;5064018;28;20518;-70
2023/01/08 12:39:12;;;;;;;8.10;6.53;;;9.30;99.90;;;;;;5063966;28;20527;-71
2023/01/08 12:41:42;;;;;;;7.20;5.87;;;9.30;99.90;;;;;;5061694;28;20542;-70
2023/01/08 12:44:11;;;;;;;7.93;6.10;;;9.30;99.90;;;;;;5063643;28;20455;-69
2023/01/08 12:46:41;;;;;;;7.33;6.47;;;9.30;99.90;;;;;;5064557;28;20454;-69
2023/01/08 12:49:13;;;;;;;8.43;7.10;;;9.30;99.90;;;;;;5067805;28;20530;-70
2023/01/08 12:51:49;;;;;;;8.73;7.13;;;9.20;99.90;;;;;;5067058;28;20458;-70
2023/01/08 12:54:26;;;;;;;8.90;6.77;;;9.20;99.90;;;;;;5067110;28;20505;-70
2023/01/08 12:57:00;;;;;;;8.60;6.47;;;9.20;99.90;;;;;;5067157;28;20443;-69
2023/01/08 12:59:37;;;;;;;9.93;6.97;;;9.20;99.90;;;;;;5067385;28;20444;-70
2023/01/08 13:02:14;;;;;;;7.90;6.83;;;9.20;99.90;;;;;;5067772;28;20439;-69
2023/01/08 13:04:42;;;;;;;7.20;6.50;;;9.20;99.90;;;;;;5069275;28;20439;-69
2023/01/08 13:07:18;;;;;;;8.67;7.07;;;9.20;99.90;;;;;;5067755;28;20491;-69